Time;durP1;ratioP1;P1;durP2;ratioP2;P2;SDS_P1;SDS_P2;PMS_P1;PMS_P2;Temp;Humidity;BMP_temperature;BMP_pressure;BME280_temperature;BME280_humidity;BME280_pressure;Samples;Min_cycle;Max_cycle;Signal;HPM_P1;HPM_P2
2022/12/20 04:01:23;;;;;;;9.20;4.75;;;9.70;99.90;;;;;;6155660;23;20048;-83
2022/12/20 04:03:52;;;;;;;11.43;4.60;;;9.70;99.90;;;;;;6187809;23;20168;-84
2022/12/20 04:06:18;;;;;;;7.75;4.47;;;9.70;99.90;;;;;;6161301;23;20023;-81
2022/12/20 04:08:44;;;;;;;9.65;4.50;;;9.70;99.90;;;;;;6187925;23;20092;-84
2022/12/20 04:11:16;;;;;;;11.35;5.32;;;9.70;99.90;;;;;;6188169;23;20024;-84
2022/12/20 04:13:45;;;;;;;10.35;4.60;;;9.70;99.90;;;;;;6187768;23;20013;-84
2022/12/20 04:16:15;;;;;;;12.40;6.25;;;9.80;99.90;;;;;;6161229;23;20021;-86
2022/12/20 04:18:41;;;;;;;8.75;4.63;;;9.70;99.90;;;;;;6162442;23;20498;-88
2022/12/20 04:21:07;;;;;;;10.52;4.82;;;9.80;99.90;;;;;;6163053;23;20020;-85
2022/12/20 04:23:35;;;;;;;9.85;5.43;;;9.70;99.90;;;;;;6191060;23;20009;-85
2022/12/20 04:26:04;;;;;;;7.63;4.70;;;9.80;99.90;;;;;;6189796;23;20001;-86
2022/12/20 04:28:30;;;;;;;8.63;5.22;;;9.80;99.90;;;;;;6189162;23;20013;-86
2022/12/20 04:30:56;;;;;;;12.65;5.95;;;9.80;99.90;;;;;;6162287;23;20019;-87
2022/12/20 04:33:22;;;;;;;9.55;5.25;;;9.80;99.90;;;;;;6162070;23;20017;-84
2022/12/20 04:35:48;;;;;;;8.65;5.32;;;9.80;99.90;;;;;;6188671;23;20017;-84
2022/12/20 04:38:14;;;;;;;8.60;5.15;;;9.80;99.90;;;;;;6189332;23;20016;-85
2022/12/20 04:40:39;;;;;;;11.23;5.65;;;9.80;99.90;;;;;;6188934;23;20078;-84
2022/12/20 04:43:05;;;;;;;10.23;5.18;;;9.80;99.90;;;;;;6137766;23;20024;-84
2022/12/20 04:45:31;;;;;;;8.07;4.97;;;9.80;99.90;;;;;;6162298;23;20017;-86
2022/12/20 04:47:56;;;;;;;8.13;5.18;;;9.90;99.90;;;;;;6137150;23;20025;-87
2022/12/20 04:50:22;;;;;;;9.38;4.78;;;9.90;99.90;;;;;;6188804;23;20037;-83
2022/12/20 04:55:37;;;;;;;6.50;4.07;;;9.90;99.90;;;;;;6161415;23;20025;-84
2022/12/20 04:58:02;;;;;;;7.25;4.20;;;9.90;99.90;;;;;;6161142;23;20020;-85
2022/12/20 05:00:28;;;;;;;7.97;4.25;;;9.90;99.90;;;;;;6161272;23;20010;-84
2022/12/20 05:02:54;;;;;;;10.35;4.88;;;9.90;99.90;;;;;;6161871;23;20048;-85
2022/12/20 05:05:19;;;;;;;9.18;4.40;;;9.90;99.90;;;;;;6187377;23;20024;-84
2022/12/20 05:07:45;;;;;;;10.48;4.32;;;9.90;99.90;;;;;;6187397;23;20005;-82
2022/12/20 05:10:11;;;;;;;11.13;4.18;;;10.00;99.90;;;;;;6188201;23;20084;-86
2022/12/20 05:12:36;;;;;;;7.90;4.00;;;10.00;99.90;;;;;;6161171;23;20024;-83
2022/12/20 05:15:02;;;;;;;7.85;3.88;;;10.00;99.90;;;;;;6162326;23;20021;-87
2022/12/20 05:17:29;;;;;;;8.75;4.13;;;10.10;99.90;;;;;;6188254;23;20092;-85
2022/12/20 05:19:54;;;;;;;7.68;4.20;;;10.20;99.90;;;;;;6160887;23;20089;-87
2022/12/20 05:27:49;;;;;;;5.78;3.47;;;10.30;99.90;;;;;;6189278;23;20083;-87
2022/12/20 05:30:15;;;;;;;6.90;3.55;;;10.30;99.90;;;;;;6189368;23;20385;-83
2022/12/20 05:32:40;;;;;;;6.03;3.53;;;10.30;99.90;;;;;;6189060;23;20036;-87
2022/12/20 05:35:07;;;;;;;8.50;3.30;;;10.30;99.90;;;;;;6191075;23;20017;-85
2022/12/20 05:37:33;;;;;;;6.18;3.00;;;10.30;99.90;;;;;;6190951;23;20013;-86
2022/12/20 05:39:58;;;;;;;5.90;3.40;;;10.30;99.90;;;;;;6189897;23;20371;-86
2022/12/20 05:42:24;;;;;;;4.85;3.20;;;10.30;99.90;;;;;;6188947;23;20020;-83
2022/12/20 05:44:50;;;;;;;6.25;3.45;;;10.40;99.90;;;;;;6190819;23;20092;-85
2022/12/20 05:47:16;;;;;;;8.23;3.90;;;10.40;99.90;;;;;;6162631;23;20019;-83
2022/12/20 05:49:41;;;;;;;6.38;3.47;;;10.40;99.90;;;;;;6189568;23;20021;-86
2022/12/20 05:52:07;;;;;;;6.22;3.47;;;10.40;99.90;;;;;;6162989;23;20013;-85
2022/12/20 05:54:33;;;;;;;5.82;3.50;;;10.40;99.90;;;;;;6162994;23;20092;-88
2022/12/20 05:57:07;;;;;;;6.00;3.15;;;10.40;99.90;;;;;;6163499;23;20009;-86
2022/12/20 05:59:33;;;;;;;7.05;3.63;;;10.40;99.90;;;;;;6138887;23;20013;-87
2022/12/20 06:01:59;;;;;;;9.45;4.65;;;10.40;99.90;;;;;;6189607;23;20035;-82
2022/12/20 06:04:25;;;;;;;5.97;3.55;;;10.40;99.90;;;;;;6139421;23;20017;-86
2022/12/20 06:06:51;;;;;;;6.43;3.38;;;10.40;99.90;;;;;;6163594;23;20017;-89
2022/12/20 06:09:17;;;;;;;6.18;3.42;;;10.40;99.90;;;;;;6190006;23;20013;-86
2022/12/20 06:11:42;;;;;;;6.95;3.30;;;10.40;99.90;;;;;;6190333;23;20016;-87
2022/12/20 06:14:08;;;;;;;7.38;3.45;;;10.40;99.90;;;;;;6162696;23;20013;-82
2022/12/20 06:16:35;;;;;;;6.68;3.25;;;10.40;99.90;;;;;;6163261;23;20017;-85
2022/12/20 06:19:01;;;;;;;7.88;3.47;;;10.40;99.90;;;;;;6163209;23;20013;-86
2022/12/20 06:21:27;;;;;;;7.70;3.92;;;10.40;99.90;;;;;;6162715;23;20013;-88
2022/12/20 06:23:53;;;;;;;6.75;4.13;;;10.40;99.90;;;;;;6163055;23;20044;-86
2022/12/20 06:26:22;;;;;;;7.68;4.15;;;10.30;99.90;;;;;;6190237;23;20016;-85
2022/12/20 06:28:51;;;;;;;6.93;4.00;;;10.20;99.90;;;;;;6163436;23;20013;-84
2022/12/20 06:31:17;;;;;;;7.22;4.55;;;10.20;99.90;;;;;;6163932;23;20027;-87
2022/12/20 06:33:43;;;;;;;7.82;4.68;;;10.10;99.90;;;;;;6163598;23;20510;-85
2022/12/20 06:36:09;;;;;;;7.57;4.80;;;10.10;99.90;;;;;;6138649;23;20044;-84
2022/12/20 06:38:35;;;;;;;9.52;5.13;;;10.00;99.90;;;;;;6189768;23;20443;-84
2022/12/20 06:41:01;;;;;;;9.90;5.38;;;10.00;99.90;;;;;;6189298;23;20015;-87
2022/12/20 06:43:27;;;;;;;8.25;5.22;;;10.00;99.90;;;;;;6139191;23;20092;-87
2022/12/20 06:45:53;;;;;;;8.93;5.70;;;10.00;99.90;;;;;;6190998;23;20501;-86
2022/12/20 06:48:22;;;;;;;7.68;5.45;;;10.00;99.90;;;;;;6139137;23;20017;-88
2022/12/20 06:50:49;;;;;;;10.18;5.88;;;9.90;99.90;;;;;;6188789;23;20092;-81
2022/12/20 06:53:14;;;;;;;9.68;5.90;;;9.90;99.90;;;;;;6188537;23;20013;-87
2022/12/20 06:55:40;;;;;;;10.52;6.07;;;9.90;99.90;;;;;;6163136;23;20028;-88
2022/12/20 06:58:05;;;;;;;11.18;6.15;;;9.90;99.90;;;;;;6189747;23;20017;-85
2022/12/20 07:00:32;;;;;;;9.43;6.40;;;9.90;99.90;;;;;;6162775;23;20075;-84
2022/12/20 07:02:58;;;;;;;10.70;5.78;;;9.80;99.90;;;;;;6162205;23;20044;-83
2022/12/20 07:05:24;;;;;;;14.25;7.05;;;9.90;99.90;;;;;;6162115;23;20443;-87
2022/12/20 07:07:50;;;;;;;12.50;6.35;;;9.90;99.90;;;;;;6138475;23;20378;-90
2022/12/20 07:10:16;;;;;;;13.88;6.93;;;9.80;99.90;;;;;;6162184;23;20021;-88
2022/12/20 07:12:42;;;;;;;13.38;6.88;;;9.90;99.90;;;;;;6137683;23;20462;-86
2022/12/20 07:15:08;;;;;;;13.15;6.53;;;9.80;99.90;;;;;;6188754;23;20009;-86
2022/12/20 07:17:33;;;;;;;12.65;6.28;;;9.80;99.90;;;;;;6162950;23;20016;-88
2022/12/20 07:19:59;;;;;;;12.43;7.63;;;9.80;99.90;;;;;;6139207;23;20009;-85
2022/12/20 07:22:25;;;;;;;11.68;7.25;;;9.90;99.90;;;;;;6138651;23;20408;-88
2022/12/20 07:24:51;;;;;;;11.65;7.40;;;9.90;99.90;;;;;;6163373;23;20051;-83
2022/12/20 07:27:17;;;;;;;12.15;7.82;;;9.90;99.90;;;;;;6162606;23;20375;-89
2022/12/20 07:29:42;;;;;;;13.00;7.93;;;9.90;99.90;;;;;;6190439;23;20092;-88
2022/12/20 07:32:28;;;;;;;13.73;8.15;;;9.90;99.90;;;;;;6192563;23;20016;-87
2022/12/20 07:34:54;;;;;;;13.60;8.63;;;9.80;99.90;;;;;;6143048;23;20017;-87
2022/12/20 07:37:23;;;;;;;13.30;7.78;;;9.80;99.90;;;;;;6203115;23;20005;-86
2022/12/20 07:39:49;;;;;;;12.45;8.48;;;9.80;99.90;;;;;;6165762;23;20060;-87
2022/12/20 07:42:15;;;;;;;15.07;8.77;;;9.80;99.90;;;;;;6140616;23;20067;-83
2022/12/20 07:44:41;;;;;;;14.57;8.95;;;9.70;99.90;;;;;;6144894;23;20017;-89
2022/12/20 07:47:36;;;;;;;13.82;9.07;;;9.70;99.90;;;;;;6153042;23;20032;-86
2022/12/20 07:50:06;;;;;;;13.10;8.32;;;9.70;99.90;;;;;;6154649;23;20021;-84
2022/12/20 07:52:38;;;;;;;13.95;8.52;;;9.70;99.90;;;;;;6200745;23;20013;-80
2022/12/20 07:55:07;;;;;;;19.33;9.50;;;9.80;99.90;;;;;;6174692;23;20023;-84
2022/12/20 07:57:56;;;;;;;13.30;8.52;;;9.70;99.90;;;;;;6122784;23;20084;-86
2022/12/20 08:00:22;;;;;;;14.45;8.25;;;9.70;99.90;;;;;;6140079;23;20335;-88
2022/12/20 08:02:55;;;;;;;13.20;8.95;;;9.70;99.90;;;;;;6170741;23;20013;-81
2022/12/20 08:05:40;;;;;;;13.88;8.75;;;9.70;99.90;;;;;;6198197;23;20088;-82
2022/12/20 08:08:07;;;;;;;15.83;8.07;;;9.70;99.90;;;;;;6168091;23;20068;-83
2022/12/20 08:10:33;;;;;;;12.93;7.63;;;9.70;99.90;;;;;;6168491;23;20021;-81
2022/12/20 08:12:59;;;;;;;13.55;7.72;;;9.80;99.90;;;;;;6175797;23;20032;-86
2022/12/20 08:15:27;;;;;;;12.27;7.72;;;9.80;99.90;;;;;;6176909;23;20014;-85
2022/12/20 08:17:53;;;;;;;12.13;7.18;;;9.70;99.90;;;;;;6151020;23;20064;-86
2022/12/20 08:20:19;;;;;;;12.38;7.00;;;9.80;99.90;;;;;;6145864;23;20001;-86
2022/12/20 08:22:44;;;;;;;10.15;6.50;;;9.80;99.90;;;;;;6163637;23;20023;-86
2022/12/20 08:25:13;;;;;;;12.38;7.00;;;9.80;99.90;;;;;;6189666;23;20048;-85
2022/12/20 08:27:38;;;;;;;11.32;6.43;;;9.80;99.90;;;;;;6160648;23;20090;-80
2022/12/20 08:30:07;;;;;;;11.15;6.07;;;9.80;99.90;;;;;;6160695;23;20435;-81
2022/12/20 08:32:33;;;;;;;9.63;6.22;;;9.80;99.90;;;;;;6160944;23;20059;-82
2022/12/20 08:34:58;;;;;;;12.05;6.07;;;9.80;99.90;;;;;;6188355;23;20009;-82
2022/12/20 08:37:24;;;;;;;10.88;6.20;;;9.80;99.90;;;;;;6191918;23;20020;-81
2022/12/20 08:39:50;;;;;;;10.30;5.93;;;9.80;99.90;;;;;;6188813;23;20013;-81
2022/12/20 08:42:15;;;;;;;8.82;5.32;;;9.80;99.90;;;;;;6187142;23;20085;-81
2022/12/20 08:44:41;;;;;;;11.40;5.00;;;9.90;99.90;;;;;;6160172;23;20083;-80
2022/12/20 08:47:06;;;;;;;12.63;5.72;;;9.90;99.90;;;;;;6186644;23;20024;-81
2022/12/20 08:49:32;;;;;;;9.20;4.88;;;9.90;99.90;;;;;;6159989;23;20383;-81
2022/12/20 08:51:58;;;;;;;11.25;5.00;;;9.90;99.90;;;;;;6159272;23;20044;-84
2022/12/20 08:54:23;;;;;;;9.05;4.93;;;10.00;99.90;;;;;;6185698;23;20013;-79
2022/12/20 08:56:49;;;;;;;7.20;4.90;;;9.90;99.90;;;;;;6186593;23;20096;-79
2022/12/20 08:59:14;;;;;;;12.02;4.85;;;9.90;99.90;;;;;;6160607;23;20013;-81
2022/12/20 09:01:40;;;;;;;12.20;4.70;;;10.00;99.90;;;;;;6160103;23;20008;-81
2022/12/20 09:04:05;;;;;;;9.70;5.00;;;10.00;99.90;;;;;;6160116;23;20437;-81
2022/12/20 09:06:34;;;;;;;7.65;4.40;;;10.00;99.90;;;;;;6188010;23;20016;-81
2022/12/20 09:09:00;;;;;;;8.00;4.30;;;10.00;99.90;;;;;;6161386;23;20051;-79
2022/12/20 09:11:26;;;;;;;9.73;4.72;;;10.10;99.90;;;;;;6188558;23;20013;-79
2022/12/20 09:13:54;;;;;;;7.03;4.38;;;10.10;99.90;;;;;;6138032;23;20021;-80
2022/12/20 09:16:22;;;;;;;7.88;4.13;;;10.10;99.90;;;;;;6188326;23;20305;-81
2022/12/20 09:18:50;;;;;;;7.43;3.90;;;10.10;99.90;;;;;;6187941;23;20009;-82
2022/12/20 09:21:16;;;;;;;7.07;4.07;;;10.20;99.90;;;;;;6161375;23;20013;-80
2022/12/20 09:23:41;;;;;;;6.63;3.58;;;10.20;99.90;;;;;;6161532;23;20017;-80
2022/12/20 09:26:10;;;;;;;7.78;3.30;;;10.30;99.90;;;;;;6162079;23;20017;-81
2022/12/20 09:28:36;;;;;;;6.57;3.42;;;10.30;99.90;;;;;;6188966;23;20024;-80
2022/12/20 09:31:04;;;;;;;7.50;3.40;;;10.40;99.90;;;;;;6137721;23;20017;-79
2022/12/20 09:33:31;;;;;;;5.97;3.20;;;10.30;99.90;;;;;;6189878;23;20031;-81
2022/12/20 09:35:58;;;;;;;6.45;3.33;;;10.40;99.90;;;;;;6189098;23;20017;-80
2022/12/20 09:38:24;;;;;;;8.32;3.10;;;10.40;99.90;;;;;;6189873;23;20009;-80
2022/12/20 09:40:54;;;;;;;8.23;3.20;;;10.40;99.90;;;;;;6162607;23;20013;-79
2022/12/20 09:43:21;;;;;;;6.78;3.55;;;10.40;99.90;;;;;;6163082;23;20020;-79
2022/12/20 09:45:50;;;;;;;8.60;3.53;;;10.40;99.90;;;;;;6161938;23;20049;-79
2022/12/20 09:48:20;;;;;;;6.85;3.33;;;10.40;99.90;;;;;;6188384;23;20088;-78
2022/12/20 09:51:09;;;;;;;6.07;3.25;;;10.40;99.90;;;;;;6137387;23;20016;-79
2022/12/20 09:53:48;;;;;;;10.15;3.45;;;10.30;99.90;;;;;;6161868;23;20017;-79
2022/12/20 09:56:26;;;;;;;6.70;3.42;;;10.30;99.90;;;;;;6188806;23;20056;-79
2022/12/20 09:59:16;;;;;;;5.43;3.17;;;10.30;99.90;;;;;;6162751;23;20072;-79
2022/12/20 10:01:45;;;;;;;7.45;3.67;;;10.30;99.90;;;;;;6164204;23;20363;-80
2022/12/20 10:04:25;;;;;;;7.53;3.60;;;10.30;99.90;;;;;;6162163;23;20013;-79
2022/12/20 10:07:18;;;;;;;7.60;3.42;;;10.30;99.90;;;;;;6189629;23;20009;-79
2022/12/20 10:10:02;;;;;;;6.68;3.28;;;10.30;99.90;;;;;;6163823;23;20066;-80
2022/12/20 10:12:59;;;;;;;6.70;3.38;;;10.30;99.90;;;;;;6188710;23;20364;-78
2022/12/20 10:15:35;;;;;;;7.38;3.45;;;10.30;99.90;;;;;;6162477;23;20021;-79
2022/12/20 10:18:16;;;;;;;8.95;4.10;;;10.30;99.90;;;;;;6189541;23;20009;-78
2022/12/20 10:21:09;;;;;;;5.95;3.33;;;10.30;99.90;;;;;;6162077;23;20020;-79
2022/12/20 10:24:00;;;;;;;9.07;3.65;;;10.40;99.90;;;;;;6188526;23;20009;-79
2022/12/20 10:26:27;;;;;;;9.20;4.07;;;10.30;99.90;;;;;;6137588;23;20347;-79
2022/12/20 10:28:53;;;;;;;6.85;3.50;;;10.30;99.90;;;;;;6188808;23;20017;-79
2022/12/20 10:31:18;;;;;;;5.45;3.25;;;10.40;99.90;;;;;;6161709;23;20013;-79
2022/12/20 10:33:45;;;;;;;8.40;3.53;;;10.40;99.90;;;;;;6137635;23;20028;-79
2022/12/20 10:36:18;;;;;;;7.03;3.60;;;10.40;99.90;;;;;;6138049;23;20021;-78
2022/12/20 10:38:49;;;;;;;9.27;3.72;;;10.40;99.90;;;;;;6188432;23;20020;-80
2022/12/20 10:41:18;;;;;;;6.80;3.42;;;10.30;99.90;;;;;;6188633;23;20084;-79
2022/12/20 10:43:49;;;;;;;7.95;3.50;;;10.30;99.90;;;;;;6189179;23;20330;-78
2022/12/20 10:46:17;;;;;;;4.75;3.28;;;10.40;99.90;;;;;;6162349;23;20403;-80
2022/12/20 10:48:45;;;;;;;7.70;3.60;;;10.30;99.90;;;;;;6188214;23;20148;-80
2022/12/20 10:51:11;;;;;;;11.18;3.80;;;10.30;99.90;;;;;;6161172;23;20020;-78
2022/12/20 10:53:51;;;;;;;9.65;3.85;;;10.20;99.90;;;;;;6187572;23;20288;-79
2022/12/20 10:56:23;;;;;;;7.68;3.75;;;10.30;99.90;;;;;;6160956;23;20021;-81
2022/12/20 10:58:56;;;;;;;8.40;3.53;;;10.30;99.90;;;;;;6161046;23;20009;-78
2022/12/20 11:01:25;;;;;;;12.43;4.50;;;10.30;99.90;;;;;;6161304;23;20443;-79
2022/12/20 11:04:04;;;;;;;9.82;4.78;;;10.20;99.90;;;;;;6169590;23;20513;-77
2022/12/20 11:06:47;;;;;;;8.27;3.75;;;10.30;99.90;;;;;;6171629;23;20048;-78
2022/12/20 11:09:24;;;;;;;11.27;4.60;;;10.30;99.90;;;;;;6162993;23;20009;-79
2022/12/20 11:12:16;;;;;;;6.95;3.60;;;10.30;99.90;;;;;;6188718;23;20032;-81
2022/12/20 11:14:44;;;;;;;7.45;4.03;;;10.30;99.90;;;;;;6161083;23;20013;-78
2022/12/20 11:17:13;;;;;;;6.20;3.70;;;10.40;99.90;;;;;;6189447;23;20012;-80
2022/12/20 11:20:07;;;;;;;6.20;3.05;;;10.40;99.90;;;;;;6161075;23;20051;-79
2022/12/20 11:22:55;;;;;;;6.65;3.70;;;10.40;99.90;;;;;;6160515;23;20020;-80
2022/12/20 11:25:48;;;;;;;5.95;3.58;;;10.40;99.90;;;;;;6187450;23;20494;-79
2022/12/20 11:28:29;;;;;;;6.72;3.67;;;10.40;99.90;;;;;;6187633;23;20020;-81
2022/12/20 11:31:10;;;;;;;5.18;3.15;;;10.40;99.90;;;;;;6137859;23;20016;-79
2022/12/20 11:33:51;;;;;;;8.43;4.25;;;10.40;99.90;;;;;;6160452;23;20032;-79
2022/12/20 11:36:44;;;;;;;6.65;3.70;;;10.40;99.90;;;;;;6161260;23;20108;-79
2022/12/20 11:39:40;;;;;;;7.45;3.50;;;10.40;99.90;;;;;;6161069;23;20013;-80
2022/12/20 11:42:44;;;;;;;5.60;3.53;;;10.40;99.90;;;;;;6161056;23;20044;-78
2022/12/20 11:45:44;;;;;;;8.85;3.80;;;10.40;99.90;;;;;;6161375;23;20017;-81
2022/12/20 11:48:32;;;;;;;8.23;4.40;;;10.40;99.90;;;;;;6160187;23;20024;-79
2022/12/20 11:51:27;;;;;;;8.65;4.30;;;10.40;99.90;;;;;;6187647;23;20017;-81
2022/12/20 11:54:00;;;;;;;8.18;4.10;;;10.40;99.90;;;;;;6136498;23;20017;-80
2022/12/20 11:56:38;;;;;;;8.05;4.22;;;10.40;99.90;;;;;;6186984;23;20048;-79
2022/12/20 11:59:28;;;;;;;8.48;4.40;;;10.40;99.90;;;;;;6160542;23;20020;-79
2022/12/20 12:02:07;;;;;;;7.57;4.47;;;10.40;99.90;;;;;;6160807;23;20093;-79
2022/12/20 12:04:40;;;;;;;9.38;4.82;;;10.30;99.90;;;;;;6187319;23;20017;-79
2022/12/20 12:07:16;;;;;;;8.95;5.00;;;10.30;99.90;;;;;;6161866;23;20052;-79
2022/12/20 12:10:08;;;;;;;8.75;4.32;;;10.30;99.90;;;;;;6187467;23;20020;-82
2022/12/20 12:12:42;;;;;;;8.70;5.28;;;10.30;99.90;;;;;;6156139;23;20055;-81
2022/12/20 12:15:14;;;;;;;7.70;5.53;;;10.30;99.90;;;;;;6137079;23;20103;-80
2022/12/20 12:18:01;;;;;;;9.25;5.28;;;10.30;99.90;;;;;;6187107;23;20013;-80
2022/12/20 12:20:47;;;;;;;9.00;5.85;;;10.20;99.90;;;;;;6186852;23;20312;-81
2022/12/20 12:23:15;;;;;;;9.77;6.20;;;10.20;99.90;;;;;;6187459;23;20040;-80
2022/12/20 12:25:41;;;;;;;9.82;5.32;;;10.30;99.90;;;;;;6187100;23;20013;-80
2022/12/20 12:28:12;;;;;;;10.55;5.93;;;10.20;99.90;;;;;;6187468;23;20253;-81
2022/12/20 12:30:44;;;;;;;9.85;6.40;;;10.30;99.90;;;;;;6186448;23;20017;-78
2022/12/20 12:33:23;;;;;;;9.27;6.00;;;10.20;99.90;;;;;;6186765;23;20331;-79
2022/12/20 12:36:00;;;;;;;8.63;5.53;;;10.20;99.90;;;;;;6162406;23;20331;-80
2022/12/20 12:39:11;;;;;;;13.43;6.00;;;10.20;99.90;;;;;;6162546;23;20020;-80
2022/12/20 12:42:07;;;;;;;8.30;6.07;;;10.30;99.90;;;;;;6134069;23;20024;-80
2022/12/20 12:44:36;;;;;;;10.82;6.88;;;10.30;99.90;;;;;;6189306;23;20013;-79
2022/12/20 12:47:11;;;;;;;11.23;7.00;;;10.30;99.90;;;;;;6188412;23;20009;-79
2022/12/20 12:49:39;;;;;;;12.82;6.65;;;10.30;99.90;;;;;;6162710;23;20096;-81
2022/12/20 12:52:05;;;;;;;9.43;6.78;;;10.30;99.90;;;;;;6162174;23;20048;-79
2022/12/20 12:54:39;;;;;;;11.38;6.45;;;10.30;99.90;;;;;;6161972;23;20009;-79
2022/12/20 12:57:14;;;;;;;10.68;6.57;;;10.30;99.90;;;;;;6162049;23;20115;-79
2022/12/20 12:59:47;;;;;;;12.25;7.20;;;10.40;99.90;;;;;;6189170;23;20015;-80
2022/12/20 13:02:12;;;;;;;10.27;7.35;;;10.40;99.90;;;;;;6137829;23;20017;-80
2022/12/20 13:05:07;;;;;;;11.10;6.53;;;10.40;99.90;;;;;;6189136;23;20084;-79
2022/12/20 13:07:34;;;;;;;13.23;7.72;;;10.40;99.90;;;;;;6162909;23;20045;-81
2022/12/20 13:10:28;;;;;;;11.13;7.00;;;10.40;99.90;;;;;;6162979;23;20024;-79
2022/12/20 13:13:01;;;;;;;11.48;7.25;;;10.40;99.90;;;;;;6162969;23;20017;-79
2022/12/20 13:15:28;;;;;;;11.25;7.47;;;10.40;99.90;;;;;;6189072;23;20028;-81
2022/12/20 13:17:54;;;;;;;14.35;8.23;;;10.40;99.90;;;;;;6163202;23;20017;-80
2022/12/20 13:20:23;;;;;;;12.02;7.25;;;10.40;99.90;;;;;;6162959;23;20017;-81
2022/12/20 13:23:06;;;;;;;12.10;7.72;;;10.40;99.90;;;;;;6162788;23;20014;-80
2022/12/20 13:25:33;;;;;;;11.40;7.68;;;10.50;99.90;;;;;;6189944;23;20020;-80
2022/12/20 13:28:23;;;;;;;11.68;7.95;;;10.50;99.90;;;;;;6188744;23;20036;-81
2022/12/20 13:31:15;;;;;;;11.98;7.35;;;10.50;99.90;;;;;;6188855;23;20017;-81
2022/12/20 13:33:43;;;;;;;10.32;7.82;;;10.50;99.90;;;;;;6118572;23;20072;-82
2022/12/20 13:36:08;;;;;;;11.07;7.80;;;10.50;99.90;;;;;;6188824;23;20017;-81
2022/12/20 13:38:55;;;;;;;11.88;7.97;;;10.50;99.90;;;;;;6162029;23;20036;-81
2022/12/20 13:41:38;;;;;;;12.55;8.65;;;10.50;99.90;;;;;;6188023;23;20375;-82
2022/12/20 13:44:39;;;;;;;12.98;8.20;;;10.50;99.90;;;;;;6189728;23;20063;-80
2022/12/20 13:47:11;;;;;;;11.95;9.00;;;10.40;99.90;;;;;;6162394;23;20146;-79
2022/12/20 13:49:40;;;;;;;16.02;10.13;;;10.40;99.90;;;;;;6162235;23;20028;-79
2022/12/20 13:52:23;;;;;;;12.30;8.70;;;10.50;99.90;;;;;;6137102;23;20017;-80
2022/12/20 13:54:53;;;;;;;13.63;9.38;;;10.50;99.90;;;;;;6189675;23;20009;-79
2022/12/20 13:57:45;;;;;;;14.18;9.07;;;10.50;99.90;;;;;;6188273;23;20005;-80
2022/12/20 14:00:22;;;;;;;16.00;9.10;;;10.50;99.90;;;;;;6136015;23;20013;-80
2022/12/20 14:02:48;;;;;;;14.98;9.73;;;10.50;99.90;;;;;;6161569;23;20109;-80
2022/12/20 14:05:17;;;;;;;16.38;9.80;;;10.50;99.90;;;;;;6187660;23;20018;-79
2022/12/20 14:07:45;;;;;;;13.32;9.73;;;10.50;99.90;;;;;;6161482;23;20024;-79
2022/12/20 14:10:21;;;;;;;14.35;10.50;;;10.50;99.90;;;;;;6161605;23;20025;-79
2022/12/20 14:12:49;;;;;;;14.18;9.95;;;10.50;99.90;;;;;;6188203;23;20083;-81
2022/12/20 14:15:27;;;;;;;14.68;10.07;;;10.50;99.90;;;;;;6188268;23;20013;-79
2022/12/20 14:17:53;;;;;;;15.43;9.63;;;10.50;99.90;;;;;;6161685;23;20013;-81
2022/12/20 14:20:25;;;;;;;14.98;10.07;;;10.50;99.90;;;;;;6161614;23;20020;-80
2022/12/20 14:22:59;;;;;;;14.00;10.18;;;10.50;99.90;;;;;;6162407;23;20009;-80
2022/12/20 14:25:33;;;;;;;17.38;11.18;;;10.50;99.90;;;;;;6162106;23;20063;-81
2022/12/20 14:27:59;;;;;;;17.33;10.80;;;10.50;99.90;;;;;;6162014;23;20017;-83
2022/12/20 14:30:40;;;;;;;19.25;11.80;;;10.50;99.90;;;;;;6137114;23;20013;-80
2022/12/20 14:33:25;;;;;;;20.13;12.80;;;10.50;99.90;;;;;;6162096;23;20063;-79
2022/12/20 14:35:51;;;;;;;15.93;11.32;;;10.50;99.90;;;;;;6161959;23;20016;-80
2022/12/20 14:38:24;;;;;;;18.05;12.35;;;10.50;99.90;;;;;;6160880;23;20013;-80
2022/12/20 14:40:50;;;;;;;20.65;13.38;;;10.50;99.90;;;;;;6160743;23;20021;-79
2022/12/20 14:43:29;;;;;;;17.65;12.68;;;10.50;99.90;;;;;;6162867;23;20021;-80
2022/12/20 14:46:19;;;;;;;19.00;12.98;;;10.50;99.90;;;;;;6162369;23;20502;-80
2022/12/20 14:48:45;;;;;;;19.95;13.73;;;10.50;99.90;;;;;;6170044;23;20017;-80
2022/12/20 14:51:13;;;;;;;21.88;14.40;;;10.50;99.90;;;;;;6161711;23;20074;-78
2022/12/20 14:53:39;;;;;;;20.88;14.45;;;10.50;99.90;;;;;;6136673;23;20035;-79
2022/12/20 14:56:14;;;;;;;20.92;13.35;;;10.50;99.90;;;;;;6188040;23;20009;-80
2022/12/20 14:58:40;;;;;;;22.57;14.23;;;10.50;99.90;;;;;;6161395;23;20059;-80
2022/12/20 15:01:14;;;;;;;22.70;15.52;;;10.40;99.90;;;;;;6187347;23;20335;-80
2022/12/20 15:03:51;;;;;;;21.97;15.93;;;10.50;99.90;;;;;;6188144;23;20056;-79
2022/12/20 15:06:51;;;;;;;28.30;16.23;;;10.40;99.90;;;;;;6161824;23;20028;-79
2022/12/20 15:09:18;;;;;;;25.92;16.30;;;10.40;99.90;;;;;;6161197;23;20017;-80
2022/12/20 15:11:45;;;;;;;23.50;15.68;;;10.40;99.90;;;;;;6188221;23;20330;-81
2022/12/20 15:14:35;;;;;;;25.20;16.77;;;10.40;99.90;;;;;;6161318;23;20009;-81
2022/12/20 15:17:02;;;;;;;24.13;15.90;;;10.40;99.90;;;;;;6188610;23;20092;-79
2022/12/20 15:19:30;;;;;;;27.92;17.98;;;10.40;99.90;;;;;;6188230;23;20017;-80
2022/12/20 15:21:56;;;;;;;24.08;17.17;;;10.40;99.90;;;;;;6161112;23;20009;-79
2022/12/20 15:24:25;;;;;;;26.63;17.95;;;10.40;99.90;;;;;;6161134;23;20013;-80
2022/12/20 15:26:51;;;;;;;24.95;17.50;;;10.40;99.90;;;;;;6161396;23;20301;-82
2022/12/20 15:29:21;;;;;;;24.90;16.27;;;10.40;99.90;;;;;;6161071;23;20027;-79
2022/12/20 15:31:48;;;;;;;25.63;18.20;;;10.40;99.90;;;;;;6161922;23;20481;-79
2022/12/20 15:34:27;;;;;;;29.25;17.75;;;10.40;99.90;;;;;;6160227;23;20320;-80
2022/12/20 15:36:53;;;;;;;25.50;17.92;;;10.40;99.90;;;;;;6187587;23;20017;-80
2022/12/20 15:39:20;;;;;;;27.20;17.65;;;10.40;99.90;;;;;;6160624;23;20059;-80
2022/12/20 15:41:48;;;;;;;27.60;18.15;;;10.40;99.90;;;;;;6161073;23;20013;-80
2022/12/20 15:44:17;;;;;;;27.73;18.88;;;10.40;99.90;;;;;;6187303;23;20020;-80
2022/12/20 15:46:43;;;;;;;27.58;18.70;;;10.40;99.90;;;;;;6161337;23;20009;-80
2022/12/20 15:49:20;;;;;;;30.38;18.77;;;10.40;99.90;;;;;;6161144;23;20097;-81
2022/12/20 15:51:48;;;;;;;34.38;20.50;;;10.40;99.90;;;;;;6188649;23;20024;-82
2022/12/20 15:54:21;;;;;;;30.23;20.25;;;10.40;99.90;;;;;;6162641;23;20020;-80
2022/12/20 15:56:47;;;;;;;41.10;24.52;;;10.40;99.90;;;;;;6187313;23;20091;-80
2022/12/20 15:59:12;;;;;;;36.45;24.17;;;10.40;99.90;;;;;;6160843;23;20099;-79
2022/12/20 16:01:38;;;;;;;38.38;23.35;;;10.40;99.90;;;;;;6186620;23;20009;-81
2022/12/20 16:04:05;;;;;;;36.85;23.95;;;10.40;99.90;;;;;;6187041;23;20079;-80
2022/12/20 16:06:31;;;;;;;37.70;23.42;;;10.40;99.90;;;;;;6161089;23;20083;-81
2022/12/20 16:08:57;;;;;;;34.38;22.45;;;10.40;99.90;;;;;;6135061;23;20408;-80
2022/12/20 16:11:26;;;;;;;37.17;23.65;;;10.40;99.90;;;;;;6160380;23;20017;-80
2022/12/20 16:13:53;;;;;;;34.13;21.95;;;10.40;99.90;;;;;;6160752;23;20101;-80
2022/12/20 16:16:21;;;;;;;36.83;23.38;;;10.40;99.90;;;;;;6160521;23;20017;-80
2022/12/20 16:18:47;;;;;;;36.88;22.80;;;10.30;99.90;;;;;;6186993;23;20036;-80
2022/12/20 16:21:21;;;;;;;36.22;22.33;;;10.30;99.90;;;;;;6160054;23;20013;-80
2022/12/20 16:23:47;;;;;;;37.95;22.73;;;10.40;99.90;;;;;;6160244;23;20013;-80
2022/12/20 16:26:13;;;;;;;32.75;22.98;;;10.30;99.90;;;;;;6159068;23;20013;-80
2022/12/20 16:28:39;;;;;;;38.53;23.10;;;10.30;99.90;;;;;;6160081;23;20024;-79
2022/12/20 16:31:16;;;;;;;35.88;22.55;;;10.30;99.90;;;;;;6160672;23;20017;-80
2022/12/20 16:33:42;;;;;;;34.95;22.67;;;10.30;99.90;;;;;;6159885;23;20016;-81
2022/12/20 16:36:10;;;;;;;35.35;22.40;;;10.30;99.90;;;;;;6187873;23;20024;-81
2022/12/20 16:38:36;;;;;;;33.35;19.08;;;10.30;99.90;;;;;;6160185;23;20013;-80
2022/12/20 16:41:14;;;;;;;37.17;21.85;;;10.30;99.90;;;;;;6160180;23;20021;-80
2022/12/20 16:43:40;;;;;;;37.97;22.02;;;10.30;99.90;;;;;;6186812;23;20015;-80
2022/12/20 16:46:12;;;;;;;35.67;22.27;;;10.30;99.90;;;;;;6186801;23;20013;-82
2022/12/20 16:48:38;;;;;;;36.45;23.10;;;10.30;99.90;;;;;;6135115;23;20435;-79
2022/12/20 16:51:24;;;;;;;38.10;21.98;;;10.30;99.90;;;;;;6186135;23;20020;-80
2022/12/20 16:53:52;;;;;;;38.42;22.85;;;10.30;99.90;;;;;;6135508;23;20021;-80
2022/12/20 16:56:17;;;;;;;38.15;22.27;;;10.30;99.90;;;;;;6186273;23;20009;-79
2022/12/20 16:58:43;;;;;;;35.85;22.42;;;10.30;99.90;;;;;;6159365;23;20028;-79
2022/12/20 17:01:15;;;;;;;36.72;21.77;;;10.30;99.90;;;;;;6159117;23;20024;-80
2022/12/20 17:03:40;;;;;;;39.78;23.35;;;10.30;99.90;;;;;;6186561;23;20009;-79
2022/12/20 17:06:08;;;;;;;38.00;21.00;;;10.30;99.90;;;;;;6186618;23;20023;-79
2022/12/20 17:08:34;;;;;;;44.13;24.80;;;10.30;99.90;;;;;;6135067;23;20473;-79
2022/12/20 17:11:00;;;;;;;41.55;24.25;;;10.30;99.90;;;;;;6185964;23;20017;-79